Time;durP1;ratioP1;P1;durP2;ratioP2;P2;SDS_P1;SDS_P2;PMS_P1;PMS_P2;Temp;Humidity;BMP_temperature;BMP_pressure;BME280_temperature;BME280_humidity;BME280_pressure;Samples;Min_cycle;Max_cycle;Signal;HPM_P1;HPM_P2
2022/02/17 00:00:13;;;;;;;44.72;27.67;;;7.80;86.70;;;;;;5052720;28;20025;-62
2022/02/17 00:02:42;;;;;;;53.50;29.40;;;7.80;86.90;;;;;;5051924;28;20116;-59
2022/02/17 00:05:09;;;;;;;49.78;28.25;;;7.80;86.90;;;;;;5052354;28;20017;-59
2022/02/17 00:07:34;;;;;;;43.72;26.65;;;7.80;87.10;;;;;;5053142;28;20503;-59
2022/02/17 00:10:00;;;;;;;52.95;29.75;;;7.70;86.80;;;;;;5055861;28;20025;-59
2022/02/17 00:12:26;;;;;;;60.17;34.70;;;7.70;87.00;;;;;;5049875;28;20087;-59
2022/02/17 00:14:51;;;;;;;48.90;29.48;;;7.70;87.00;;;;;;5055661;28;20033;-59
2022/02/17 00:17:17;;;;;;;52.20;31.70;;;7.60;87.10;;;;;;5055730;28;20052;-60
2022/02/17 00:19:43;;;;;;;49.63;30.83;;;7.60;87.10;;;;;;5055920;28;20064;-60
2022/02/17 00:22:09;;;;;;;52.08;32.03;;;7.60;87.10;;;;;;5051231;28;20477;-59
2022/02/17 00:24:34;;;;;;;49.10;31.08;;;7.60;87.10;;;;;;5058861;28;20485;-59
2022/02/17 00:27:02;;;;;;;55.95;36.38;;;7.60;87.10;;;;;;5056460;28;20021;-62
2022/02/17 00:29:28;;;;;;;51.80;32.38;;;7.60;87.10;;;;;;5055782;28;20028;-60
2022/02/17 00:31:54;;;;;;;45.53;30.17;;;7.60;87.10;;;;;;5053370;28;20033;-59
2022/02/17 00:34:19;;;;;;;51.83;32.20;;;7.50;87.00;;;;;;5055215;28;20090;-60
2022/02/17 00:36:45;;;;;;;50.47;33.25;;;7.50;87.20;;;;;;5055424;28;20531;-60
2022/02/17 00:39:10;;;;;;;48.83;30.67;;;7.50;87.20;;;;;;5061897;28;20481;-60
2022/02/17 00:41:36;;;;;;;43.72;27.33;;;7.50;87.20;;;;;;5053352;28;20580;-60
2022/02/17 00:44:02;;;;;;;43.65;27.52;;;7.60;87.30;;;;;;5055521;28;20021;-60
2022/02/17 00:46:28;;;;;;;39.17;24.80;;;7.50;87.10;;;;;;5055382;28;20025;-60
2022/02/17 00:48:54;;;;;;;45.85;28.65;;;7.50;87.00;;;;;;5053834;28;20071;-60
2022/02/17 00:51:19;;;;;;;46.17;29.95;;;7.50;86.90;;;;;;5054326;28;20145;-60
2022/02/17 00:53:45;;;;;;;47.13;28.48;;;7.50;86.90;;;;;;5053485;28;20493;-60
2022/02/17 00:56:11;;;;;;;40.55;27.30;;;7.50;87.10;;;;;;5052774;28;20081;-60
2022/02/17 00:58:36;;;;;;;47.22;29.80;;;7.50;87.10;;;;;;5052850;28;20029;-60
2022/02/17 01:01:02;;;;;;;48.10;28.67;;;7.40;87.20;;;;;;5054988;28;20104;-60
2022/02/17 01:03:28;;;;;;;48.78;29.52;;;7.40;87.20;;;;;;5054535;28;20028;-62
2022/02/17 01:05:54;;;;;;;44.22;28.33;;;7.40;87.10;;;;;;5049730;28;20025;-61
2022/02/17 01:08:19;;;;;;;48.47;30.08;;;7.40;87.20;;;;;;5054388;28;20473;-61
2022/02/17 01:10:45;;;;;;;43.17;25.88;;;7.40;87.30;;;;;;5054359;28;20021;-61
2022/02/17 01:13:11;;;;;;;46.60;27.83;;;7.40;87.30;;;;;;5058567;28;20056;-60
2022/02/17 01:15:37;;;;;;;51.22;30.45;;;7.40;87.30;;;;;;5057862;28;20102;-60
2022/02/17 01:18:03;;;;;;;46.90;28.02;;;7.40;87.30;;;;;;5054784;28;20057;-60
2022/02/17 01:20:29;;;;;;;49.20;30.15;;;7.40;87.30;;;;;;5054877;28;20053;-60
2022/02/17 01:22:54;;;;;;;44.80;28.77;;;7.40;87.30;;;;;;5059154;28;20044;-60
2022/02/17 01:25:20;;;;;;;48.38;29.02;;;7.40;87.40;;;;;;5049310;28;20032;-60
2022/02/17 01:27:46;;;;;;;50.65;32.80;;;7.40;87.30;;;;;;5052236;28;20060;-60
2022/02/17 01:30:12;;;;;;;49.60;32.67;;;7.40;87.30;;;;;;5051322;28;20068;-60
2022/02/17 01:32:38;;;;;;;49.15;30.35;;;7.40;87.20;;;;;;5045034;28;20496;-60
2022/02/17 01:35:04;;;;;;;48.72;29.10;;;7.40;87.20;;;;;;5054188;28;20052;-60
2022/02/17 01:37:30;;;;;;;54.63;33.53;;;7.40;87.20;;;;;;5052750;28;20448;-60
2022/02/17 01:39:56;;;;;;;43.30;29.52;;;7.40;87.20;;;;;;5059054;28;20151;-60
2022/02/17 01:42:22;;;;;;;49.47;31.05;;;7.40;87.10;;;;;;5061256;28;20040;-60
2022/02/17 01:44:50;;;;;;;60.67;37.67;;;7.40;87.10;;;;;;5074253;28;20020;-60
2022/02/17 01:47:17;;;;;;;61.40;37.80;;;7.40;87.20;;;;;;5062849;28;20459;-60
2022/02/17 01:49:46;;;;;;;61.83;38.50;;;7.40;87.20;;;;;;5049499;28;20461;-60
2022/02/17 01:52:12;;;;;;;58.78;37.38;;;7.40;87.10;;;;;;5053794;28;20021;-60
2022/02/17 01:54:40;;;;;;;74.95;42.42;;;7.30;87.10;;;;;;5045222;28;20035;-60
2022/02/17 01:57:14;;;;;;;69.45;38.85;;;7.30;87.40;;;;;;5052477;28;20538;-61
2022/02/17 01:59:41;;;;;;;58.42;34.40;;;7.40;87.30;;;;;;5054051;28;20029;-61
2022/02/17 02:02:07;;;;;;;49.25;31.80;;;7.40;87.30;;;;;;5047593;28;20060;-63
2022/02/17 02:04:32;;;;;;;53.08;32.58;;;7.40;87.10;;;;;;5052955;28;20041;-61
2022/02/17 02:06:59;;;;;;;51.33;33.28;;;7.40;87.10;;;;;;5059145;28;20017;-61
2022/02/17 02:09:24;;;;;;;44.85;30.50;;;7.30;87.20;;;;;;5050610;28;20025;-61
2022/02/17 02:11:51;;;;;;;47.80;32.33;;;7.30;87.00;;;;;;5053682;28;20099;-61
2022/02/17 02:14:18;;;;;;;47.78;31.92;;;7.20;87.30;;;;;;5049885;28;20071;-61
2022/02/17 02:16:44;;;;;;;55.20;32.28;;;7.20;87.30;;;;;;5047924;28;20029;-61
2022/02/17 02:19:10;;;;;;;53.53;34.45;;;7.20;87.50;;;;;;5047089;28;20029;-61
2022/02/17 02:21:36;;;;;;;61.33;36.65;;;7.20;87.60;;;;;;5052128;28;20033;-61
2022/02/17 02:24:02;;;;;;;59.67;37.38;;;7.20;87.70;;;;;;5054504;28;20033;-61
2022/02/17 02:26:28;;;;;;;56.17;36.60;;;7.20;87.80;;;;;;5047924;28;20469;-61
2022/02/17 02:28:55;;;;;;;54.65;35.53;;;7.20;88.10;;;;;;5052983;28;20016;-61
2022/02/17 02:31:21;;;;;;;51.83;34.45;;;7.20;88.00;;;;;;5052894;28;20467;-61
2022/02/17 02:33:47;;;;;;;53.08;32.47;;;7.20;88.00;;;;;;5053149;28;20099;-61
2022/02/17 02:36:13;;;;;;;52.38;31.98;;;7.20;88.30;;;;;;5064215;28;20411;-61
2022/02/17 02:38:39;;;;;;;54.88;34.42;;;7.20;88.20;;;;;;5048878;28;20036;-61
2022/02/17 02:41:05;;;;;;;55.83;33.20;;;7.10;88.20;;;;;;5051946;28;20567;-61
2022/02/17 02:43:31;;;;;;;51.00;34.33;;;7.10;88.50;;;;;;5053530;28;20032;-61
2022/02/17 02:45:57;;;;;;;56.72;34.08;;;7.10;88.80;;;;;;5051360;28;20029;-61
2022/02/17 02:48:22;;;;;;;57.55;37.15;;;7.10;88.90;;;;;;5053348;28;20021;-61
2022/02/17 02:50:48;;;;;;;54.95;33.58;;;7.20;89.70;;;;;;5053093;28;20409;-61
2022/02/17 02:53:18;;;;;;;55.30;35.35;;;7.20;89.10;;;;;;5050298;28;20365;-61
2022/02/17 02:55:46;;;;;;;51.17;31.83;;;7.20;89.10;;;;;;5042112;28;20029;-61
2022/02/17 02:58:13;;;;;;;46.72;30.35;;;7.20;89.00;;;;;;5052238;28;20021;-61
2022/02/17 03:00:39;;;;;;;46.45;29.98;;;7.20;88.90;;;;;;5042749;28;20032;-61
2022/02/17 03:03:05;;;;;;;58.22;34.55;;;7.30;88.70;;;;;;5051163;28;20028;-61
2022/02/17 03:05:31;;;;;;;52.10;34.95;;;7.30;88.70;;;;;;5052138;28;20067;-61
2022/02/17 03:07:57;;;;;;;62.47;36.42;;;7.30;88.90;;;;;;5051050;28;20548;-61
2022/02/17 03:10:23;;;;;;;68.43;41.17;;;7.30;88.80;;;;;;5046426;28;20032;-61
2022/02/17 03:12:48;;;;;;;68.65;36.63;;;7.30;88.70;;;;;;5064421;28;20040;-61
2022/02/17 03:15:15;;;;;;;74.07;43.85;;;7.30;88.50;;;;;;5061789;28;20433;-61
2022/02/17 03:17:41;;;;;;;70.10;40.83;;;7.40;88.50;;;;;;5048729;28;20029;-61
2022/02/17 03:20:10;;;;;;;64.53;38.88;;;7.30;88.50;;;;;;5058449;28;20024;-61
2022/02/17 03:22:37;;;;;;;56.10;35.75;;;7.40;88.80;;;;;;5055375;28;20461;-61
2022/02/17 03:25:05;;;;;;;59.35;35.30;;;7.40;88.70;;;;;;5050807;28;20417;-61
2022/02/17 03:27:30;;;;;;;52.05;31.20;;;7.40;88.60;;;;;;5051927;28;20564;-61
2022/02/17 03:29:56;;;;;;;40.85;27.33;;;7.40;88.40;;;;;;5053256;28;20047;-61
2022/02/17 03:32:22;;;;;;;40.55;27.10;;;7.50;88.40;;;;;;5052908;28;20028;-61
2022/02/17 03:34:48;;;;;;;39.30;26.38;;;7.50;88.30;;;;;;5051837;28;20401;-61
2022/02/17 03:37:13;;;;;;;39.60;26.75;;;7.50;88.30;;;;;;5042517;28;20421;-61
2022/02/17 03:39:39;;;;;;;42.00;28.85;;;7.50;88.30;;;;;;5052771;28;20056;-61
2022/02/17 03:42:06;;;;;;;47.80;32.83;;;7.50;88.30;;;;;;5056238;28;20155;-61
2022/02/17 03:44:32;;;;;;;46.50;31.38;;;7.50;88.40;;;;;;5056078;28;20057;-61
2022/02/17 03:46:57;;;;;;;46.30;32.85;;;7.50;88.40;;;;;;5051548;28;20043;-61
2022/02/17 03:49:23;;;;;;;39.40;27.40;;;7.60;88.40;;;;;;5056394;28;20025;-61
2022/02/17 03:51:50;;;;;;;44.60;29.10;;;7.60;88.30;;;;;;5051440;28;20026;-61
2022/02/17 03:54:16;;;;;;;43.17;28.73;;;7.60;88.10;;;;;;5056407;28;20029;-61
2022/02/17 03:56:41;;;;;;;35.30;25.25;;;7.60;88.20;;;;;;5054025;28;20036;-61
2022/02/17 03:59:08;;;;;;;40.15;25.75;;;7.60;88.20;;;;;;5056203;28;20600;-61
2022/02/17 04:01:35;;;;;;;38.85;25.10;;;7.60;88.10;;;;;;5046098;28;20449;-61
2022/02/17 04:04:03;;;;;;;33.28;23.73;;;7.60;88.10;;;;;;5045074;28;20036;-61
2022/02/17 04:06:29;;;;;;;36.17;25.98;;;7.60;88.10;;;;;;5053726;28;20025;-61
2022/02/17 04:08:55;;;;;;;41.75;27.13;;;7.60;88.10;;;;;;5063548;28;20036;-61
2022/02/17 04:11:21;;;;;;;33.70;25.20;;;7.50;88.30;;;;;;5061232;28;20032;-61
2022/02/17 04:13:49;;;;;;;33.53;24.88;;;7.50;88.30;;;;;;5047967;28;20394;-61
2022/02/17 04:16:15;;;;;;;38.80;26.73;;;7.50;88.90;;;;;;5051386;28;20380;-61
2022/02/17 04:18:42;;;;;;;34.25;24.85;;;7.50;88.40;;;;;;5049952;28;20034;-61
2022/02/17 04:21:08;;;;;;;35.95;26.08;;;7.50;88.50;;;;;;5047484;28;20034;-61
2022/02/17 04:23:34;;;;;;;38.63;26.70;;;7.50;88.50;;;;;;5053617;28;20036;-61
2022/02/17 04:26:01;;;;;;;36.33;24.48;;;7.50;88.60;;;;;;5041352;28;20060;-61
2022/02/17 04:28:26;;;;;;;36.33;25.02;;;7.50;88.60;;;;;;5046817;28;20068;-61
2022/02/17 04:30:52;;;;;;;37.03;25.27;;;7.40;88.70;;;;;;5052022;28;20025;-61
2022/02/17 04:33:18;;;;;;;40.67;26.58;;;7.40;88.90;;;;;;5053691;28;20503;-61
2022/02/17 04:35:43;;;;;;;36.60;24.88;;;7.40;89.10;;;;;;5057019;28;20045;-61
2022/02/17 04:38:09;;;;;;;40.40;23.15;;;7.40;89.10;;;;;;5051074;28;20094;-61
2022/02/17 04:43:19;;;;;;;44.75;29.52;;;7.40;89.10;;;;;;5054691;28;20124;-61
2022/02/17 04:45:45;;;;;;;39.67;26.55;;;7.40;89.20;;;;;;5062129;28;20100;-61
2022/02/17 04:48:11;;;;;;;40.88;28.42;;;7.40;89.30;;;;;;5055479;28;20040;-61
2022/02/17 04:50:36;;;;;;;41.30;29.50;;;7.40;89.20;;;;;;5054201;28;20017;-61
2022/02/17 04:53:02;;;;;;;48.72;32.03;;;7.40;89.50;;;;;;5049872;28;20029;-61
2022/02/17 04:55:28;;;;;;;44.45;31.92;;;7.40;89.50;;;;;;5052071;28;20025;-61
2022/02/17 04:57:54;;;;;;;51.97;33.63;;;7.40;89.70;;;;;;5042696;28;20061;-61
2022/02/17 05:00:19;;;;;;;45.50;29.13;;;7.40;89.70;;;;;;5049114;28;20029;-61
2022/02/17 05:02:45;;;;;;;51.63;33.63;;;7.40;89.60;;;;;;5050192;28;20036;-61
2022/02/17 05:05:10;;;;;;;47.58;31.15;;;7.40;89.50;;;;;;5054037;28;20028;-61
2022/02/17 05:07:36;;;;;;;46.05;30.77;;;7.40;89.50;;;;;;5047627;28;20033;-61
2022/02/17 05:10:02;;;;;;;56.45;35.28;;;7.40;89.50;;;;;;5064350;28;20448;-61
2022/02/17 05:12:28;;;;;;;44.33;29.60;;;7.40;89.60;;;;;;5052341;28;20054;-61
2022/02/17 05:14:53;;;;;;;50.03;31.88;;;7.40;89.60;;;;;;5054663;28;20056;-61
2022/02/17 05:17:19;;;;;;;48.30;30.85;;;7.40;89.60;;;;;;5045521;28;20033;-61
2022/02/17 05:19:45;;;;;;;42.67;29.00;;;7.50;89.50;;;;;;5048975;28;20164;-61
2022/02/17 05:22:10;;;;;;;47.58;29.27;;;7.50;89.30;;;;;;5061199;28;20113;-61
2022/02/17 05:24:36;;;;;;;40.75;28.73;;;7.50;89.20;;;;;;5053824;28;20025;-61
2022/02/17 05:27:02;;;;;;;49.90;33.10;;;7.40;89.20;;;;;;5054267;28;20392;-61
2022/02/17 05:29:28;;;;;;;41.38;27.85;;;7.50;89.50;;;;;;5053670;28;20052;-61
2022/02/17 05:31:54;;;;;;;49.05;29.85;;;7.50;89.20;;;;;;5053765;28;20433;-61
2022/02/17 05:34:20;;;;;;;45.38;30.35;;;7.50;89.20;;;;;;5053292;28;20067;-61
2022/02/17 05:36:46;;;;;;;47.42;29.70;;;7.40;89.20;;;;;;5052599;28;20040;-61
2022/02/17 05:39:11;;;;;;;44.17;29.08;;;7.40;89.20;;;;;;5054006;28;20453;-61
2022/02/17 05:41:37;;;;;;;47.72;29.08;;;7.40;89.40;;;;;;5053656;28;20033;-61
2022/02/17 05:44:04;;;;;;;44.70;29.63;;;7.50;89.50;;;;;;5053562;28;20473;-61
2022/02/17 05:46:29;;;;;;;46.33;30.40;;;7.50;89.20;;;;;;5053448;28;20424;-61
2022/02/17 05:48:55;;;;;;;41.63;26.75;;;7.50;89.20;;;;;;5053440;28;20036;-61
2022/02/17 05:51:21;;;;;;;49.03;30.40;;;7.50;89.00;;;;;;5053122;28;20235;-61
2022/02/17 05:53:47;;;;;;;46.95;28.80;;;7.60;88.90;;;;;;5050758;28;20044;-61
2022/02/17 05:56:13;;;;;;;42.40;26.38;;;7.60;88.80;;;;;;5050716;28;20028;-63
2022/02/17 05:58:38;;;;;;;42.03;28.23;;;7.60;88.70;;;;;;5046221;28;20125;-63
2022/02/17 06:01:04;;;;;;;39.45;25.92;;;7.50;88.50;;;;;;5050628;28;20049;-63
2022/02/17 06:03:30;;;;;;;43.33;28.58;;;7.50;88.50;;;;;;5047360;28;20079;-62
2022/02/17 06:05:56;;;;;;;44.17;28.02;;;7.50;88.60;;;;;;5043621;28;20383;-61
2022/02/17 06:08:22;;;;;;;44.13;28.50;;;7.50;88.70;;;;;;5045083;28;20032;-61
2022/02/17 06:10:48;;;;;;;49.40;29.67;;;7.50;88.80;;;;;;5050893;28;20480;-61
2022/02/17 06:13:14;;;;;;;44.95;28.40;;;7.50;88.90;;;;;;5049875;28;20021;-61
2022/02/17 06:15:40;;;;;;;39.17;25.70;;;7.50;88.90;;;;;;5046642;28;20082;-61
2022/02/17 06:18:06;;;;;;;46.55;28.23;;;7.60;88.90;;;;;;5049230;28;20036;-61
2022/02/17 06:20:32;;;;;;;49.92;31.55;;;7.60;88.70;;;;;;5047436;28;20036;-61
2022/02/17 06:22:58;;;;;;;46.65;28.25;;;7.60;88.70;;;;;;5042295;28;20047;-61
2022/02/17 06:25:24;;;;;;;42.47;27.45;;;7.70;88.60;;;;;;5044203;28;20033;-61
2022/02/17 06:27:51;;;;;;;47.50;29.63;;;7.60;88.40;;;;;;5045997;28;20024;-61
2022/02/17 06:30:18;;;;;;;44.50;30.45;;;7.60;88.30;;;;;;5042792;28;20025;-61
2022/02/17 06:32:55;;;;;;;48.08;31.10;;;7.70;88.40;;;;;;5048193;28;20063;-61
2022/02/17 06:35:30;;;;;;;43.00;28.33;;;7.70;88.40;;;;;;5048713;28;20048;-61
2022/02/17 06:37:56;;;;;;;42.25;28.65;;;7.70;88.40;;;;;;5043969;28;20114;-61
2022/02/17 06:40:23;;;;;;;47.72;29.15;;;7.70;88.30;;;;;;5041759;28;20154;-61
2022/02/17 06:42:48;;;;;;;46.78;30.17;;;7.70;88.20;;;;;;5047872;28;20037;-62
2022/02/17 06:45:16;;;;;;;43.20;28.85;;;7.70;87.90;;;;;;5043928;28;20025;-61
2022/02/17 06:47:41;;;;;;;44.67;29.77;;;7.70;88.00;;;;;;5040550;28;20053;-61
2022/02/17 06:50:09;;;;;;;48.50;28.98;;;7.70;88.00;;;;;;5033607;28;20401;-61
2022/02/17 06:52:35;;;;;;;48.08;31.92;;;7.80;87.90;;;;;;5046426;28;20028;-61
2022/02/17 06:55:01;;;;;;;41.90;27.98;;;7.80;87.90;;;;;;5043587;28;20029;-61
2022/02/17 06:57:28;;;;;;;50.50;31.42;;;7.80;87.90;;;;;;5040444;28;20037;-61
2022/02/17 06:59:54;;;;;;;53.20;33.45;;;7.80;87.70;;;;;;5039474;28;20576;-61
2022/02/17 07:02:26;;;;;;;50.03;32.15;;;7.80;87.90;;;;;;5030545;28;20075;-61
2022/02/17 07:04:52;;;;;;;45.92;30.25;;;7.90;87.70;;;;;;5043786;28;20021;-61
2022/02/17 07:07:19;;;;;;;47.30;29.88;;;7.90;87.50;;;;;;5036877;28;20037;-63
2022/02/17 07:09:45;;;;;;;48.35;30.83;;;7.90;87.10;;;;;;5040797;28;20551;-63
2022/02/17 07:12:12;;;;;;;42.65;30.08;;;8.00;87.10;;;;;;5036414;28;20071;-63
2022/02/17 07:14:38;;;;;;;46.17;31.70;;;7.90;86.90;;;;;;5044134;28;20028;-63
2022/02/17 07:17:04;;;;;;;52.88;30.70;;;8.00;86.80;;;;;;5045088;28;20393;-63
2022/02/17 07:19:30;;;;;;;44.05;29.23;;;8.00;86.80;;;;;;5039096;28;20029;-63
2022/02/17 07:21:56;;;;;;;43.17;29.08;;;8.00;86.80;;;;;;5044361;28;20079;-63
2022/02/17 07:24:22;;;;;;;42.58;27.73;;;8.00;86.70;;;;;;5043178;28;20112;-63
2022/02/17 07:26:48;;;;;;;46.63;28.48;;;8.00;86.40;;;;;;5037482;28;20116;-62
2022/02/17 07:29:15;;;;;;;46.97;28.63;;;8.00;86.20;;;;;;5044104;28;20588;-62
2022/02/17 07:31:41;;;;;;;50.85;31.40;;;8.00;86.30;;;;;;5041272;28;20059;-62
2022/02/17 07:34:08;;;;;;;46.40;29.65;;;8.00;86.30;;;;;;5043289;28;20051;-62
2022/02/17 07:36:35;;;;;;;48.25;30.42;;;8.00;86.40;;;;;;5043688;28;20029;-62
2022/02/17 07:39:00;;;;;;;49.70;33.67;;;8.00;86.30;;;;;;5040544;28;20037;-62
2022/02/17 07:41:26;;;;;;;49.88;32.35;;;8.10;86.30;;;;;;5035050;28;20044;-62
2022/02/17 07:43:52;;;;;;;43.85;29.08;;;8.10;86.10;;;;;;5043193;28;20033;-62
2022/02/17 07:46:17;;;;;;;44.22;30.13;;;8.10;86.00;;;;;;5038707;28;20094;-62
2022/02/17 07:48:45;;;;;;;44.20;28.67;;;8.10;85.80;;;;;;5041351;28;20040;-62
2022/02/17 07:51:12;;;;;;;48.72;31.30;;;8.10;85.60;;;;;;5042952;28;20505;-62
2022/02/17 07:53:37;;;;;;;44.20;27.75;;;8.10;85.40;;;;;;5037193;28;20040;-62
2022/02/17 07:56:03;;;;;;;48.08;30.20;;;8.10;85.50;;;;;;5034145;28;20021;-62
2022/02/17 07:58:29;;;;;;;47.80;31.08;;;8.10;85.50;;;;;;5036132;28;20027;-62
2022/02/17 08:00:55;;;;;;;46.25;29.02;;;8.10;86.40;;;;;;5031924;28;20392;-62
2022/02/17 08:03:21;;;;;;;47.38;30.90;;;8.20;85.90;;;;;;5033198;28;20079;-61
2022/02/17 08:05:47;;;;;;;47.53;31.38;;;8.20;85.40;;;;;;5034588;28;20761;-62
2022/02/17 08:08:13;;;;;;;41.75;27.88;;;8.30;85.30;;;;;;5034489;28;20202;-62
2022/02/17 08:10:39;;;;;;;36.50;25.33;;;8.30;84.90;;;;;;5037464;28;20100;-61
2022/02/17 08:13:06;;;;;;;44.70;26.50;;;8.40;84.80;;;;;;5039631;28;20039;-61
2022/02/17 08:15:32;;;;;;;44.08;29.38;;;8.40;84.60;;;;;;5037890;28;20055;-62
2022/02/17 08:17:58;;;;;;;40.88;27.25;;;8.40;84.40;;;;;;5030019;28;20029;-62
2022/02/17 08:20:24;;;;;;;38.13;25.33;;;8.50;84.30;;;;;;5031381;28;20040;-62
2022/02/17 08:22:50;;;;;;;44.42;28.38;;;8.50;84.00;;;;;;5051292;28;20025;-62
2022/02/17 08:25:17;;;;;;;42.45;28.50;;;8.50;83.90;;;;;;5037833;28;20113;-61
2022/02/17 08:27:42;;;;;;;43.42;30.27;;;8.60;83.90;;;;;;5032375;28;20021;-61
2022/02/17 08:30:09;;;;;;;40.55;26.45;;;8.60;83.60;;;;;;5033061;28;20091;-61
2022/02/17 08:32:36;;;;;;;41.35;29.05;;;8.60;83.40;;;;;;5034413;28;20855;-61
2022/02/17 08:35:04;;;;;;;42.13;28.02;;;8.70;83.40;;;;;;5032974;28;20045;-62
2022/02/17 08:37:29;;;;;;;37.47;26.23;;;8.70;83.40;;;;;;5028654;28;20025;-61
2022/02/17 08:39:55;;;;;;;40.85;26.85;;;8.80;83.00;;;;;;5033532;28;20074;-62
2022/02/17 08:42:21;;;;;;;44.78;29.88;;;8.80;82.80;;;;;;5033502;28;20915;-61
2022/02/17 08:44:47;;;;;;;45.22;28.52;;;8.80;82.70;;;;;;5034269;28;20694;-62
2022/02/17 08:47:15;;;;;;;43.13;29.50;;;8.90;82.40;;;;;;5033472;28;20037;-61
2022/02/17 08:49:42;;;;;;;46.47;29.25;;;8.90;82.10;;;;;;5031613;28;20037;-62
2022/02/17 08:52:08;;;;;;;44.30;27.98;;;8.90;81.90;;;;;;5032223;28;20374;-62
2022/02/17 08:54:34;;;;;;;43.78;30.08;;;8.90;81.70;;;;;;5032086;28;20078;-62
2022/02/17 08:57:00;;;;;;;38.78;25.48;;;8.90;81.90;;;;;;5032237;28;20069;-61
2022/02/17 08:59:25;;;;;;;40.20;26.45;;;8.90;81.60;;;;;;5032121;28;20036;-61
2022/02/17 09:01:53;;;;;;;38.47;26.45;;;8.90;81.70;;;;;;5022685;28;20040;-60
2022/02/17 09:04:19;;;;;;;35.90;25.08;;;8.90;81.60;;;;;;5032703;28;20028;-61
2022/02/17 09:06:48;;;;;;;41.22;26.52;;;9.00;81.50;;;;;;5042485;28;20075;-62
2022/02/17 09:09:14;;;;;;;45.13;27.58;;;9.00;81.10;;;;;;5034717;28;20445;-61
2022/02/17 09:11:40;;;;;;;41.90;30.02;;;9.10;81.10;;;;;;5032685;28;20033;-62
2022/02/17 09:14:06;;;;;;;43.20;27.48;;;9.10;81.00;;;;;;5027852;28;20022;-61
2022/02/17 09:16:35;;;;;;;38.33;26.63;;;9.10;81.00;;;;;;5027654;28;20039;-61
2022/02/17 09:19:03;;;;;;;37.28;24.00;;;9.20;80.80;;;;;;5040407;28;20108;-61
2022/02/17 09:21:29;;;;;;;37.90;27.02;;;9.20;80.40;;;;;;5035474;28;20590;-61
2022/02/17 09:23:55;;;;;;;39.53;25.77;;;9.20;80.20;;;;;;5036105;28;20029;-61
2022/02/17 09:26:21;;;;;;;36.17;24.05;;;9.20;80.40;;;;;;5033206;28;20036;-62
2022/02/17 09:28:48;;;;;;;33.08;20.67;;;9.20;80.50;;;;;;5035922;28;20048;-62
2022/02/17 09:31:23;;;;;;;34.17;23.58;;;9.30;80.40;;;;;;5037452;28;20512;-62
2022/02/17 09:33:56;;;;;;;29.58;20.38;;;9.30;80.00;;;;;;5033123;28;20039;-61
2022/02/17 09:36:25;;;;;;;29.90;19.80;;;9.30;79.70;;;;;;5028879;28;20033;-60
2022/02/17 09:38:51;;;;;;;34.85;23.48;;;9.30;79.60;;;;;;5025274;28;20033;-60
2022/02/17 09:41:20;;;;;;;34.05;23.15;;;9.30;79.70;;;;;;5035769;28;20075;-62
2022/02/17 09:43:46;;;;;;;32.20;21.90;;;9.30;79.60;;;;;;5031516;28;20057;-60
2022/02/17 09:46:20;;;;;;;26.70;18.85;;;9.40;79.50;;;;;;5029245;28;20056;-61
2022/02/17 09:48:50;;;;;;;32.20;21.90;;;9.40;79.30;;;;;;5024825;28;20481;-61
2022/02/17 09:51:16;;;;;;;32.90;21.02;;;9.40;79.00;;;;;;5029891;28;20021;-60
2022/02/17 09:53:42;;;;;;;32.50;21.15;;;9.40;79.00;;;;;;5038008;28;20032;-63
2022/02/17 09:56:08;;;;;;;27.55;18.33;;;9.40;79.10;;;;;;5029632;28;20832;-60
2022/02/17 10:33:57;;;;;;;28.98;20.30;;;9.50;79.00;;;;;;5318955;22;20086;-60
2022/02/17 10:36:44;;;;;;;28.00;18.77;;;9.60;79.00;;;;;;5043619;28;20511;-60
2022/02/17 10:39:13;;;;;;;32.05;22.20;;;9.60;78.60;;;;;;5044113;28;20551;-60
2022/02/17 10:41:59;;;;;;;32.67;22.67;;;9.70;78.50;;;;;;5051235;28;20028;-60
2022/02/17 10:44:44;;;;;;;29.60;20.83;;;9.70;78.30;;;;;;5050734;28;20039;-60
2022/02/17 10:47:13;;;;;;;31.05;20.63;;;9.70;78.50;;;;;;5053921;28;20816;-60
2022/02/17 10:49:44;;;;;;;27.98;19.95;;;9.70;78.20;;;;;;5049680;28;20036;-60
2022/02/17 10:52:10;;;;;;;30.88;19.30;;;9.70;78.20;;;;;;5054396;28;20035;-60
2022/02/17 10:54:36;;;;;;;27.38;19.25;;;9.70;78.10;;;;;;5052183;28;20033;-61
2022/02/17 10:57:06;;;;;;;32.72;22.25;;;9.80;78.20;;;;;;5056841;28;20676;-60
2022/02/17 11:02:22;;;;;;;28.90;20.10;;;9.80;78.20;;;;;;5053373;28;20027;-60
2022/02/17 11:04:51;;;;;;;29.83;19.02;;;9.90;77.90;;;;;;5051434;28;20032;-60
2022/02/17 11:07:17;;;;;;;27.00;19.83;;;9.90;78.00;;;;;;5044920;28;20025;-61
2022/02/17 11:09:45;;;;;;;33.50;20.58;;;10.00;78.00;;;;;;5054024;28;20467;-60
2022/02/17 11:12:11;;;;;;;30.75;21.38;;;10.00;77.70;;;;;;5058299;28;20060;-61
2022/02/17 11:14:41;;;;;;;26.55;19.58;;;10.10;77.60;;;;;;5051506;28;20174;-60
2022/02/17 11:17:10;;;;;;;30.15;20.05;;;10.10;77.40;;;;;;5058165;28;20116;-60
2022/02/17 11:19:36;;;;;;;29.38;20.08;;;10.10;77.10;;;;;;5054000;28;20029;-60
2022/02/17 11:22:03;;;;;;;27.00;19.52;;;10.10;77.30;;;;;;5056988;28;20554;-60
2022/02/17 11:24:29;;;;;;;28.33;19.83;;;10.10;77.40;;;;;;5051134;28;20031;-61
2022/02/17 11:27:03;;;;;;;23.10;17.27;;;10.10;77.20;;;;;;5042095;28;20081;-60
2022/02/17 11:29:33;;;;;;;25.10;17.50;;;10.20;77.10;;;;;;5054480;28;21939;-60
2022/02/17 11:32:02;;;;;;;23.85;17.10;;;10.10;77.20;;;;;;5053321;28;20043;-60
2022/02/17 11:34:55;;;;;;;23.80;16.83;;;10.20;77.30;;;;;;5053507;28;20051;-60
2022/02/17 11:37:30;;;;;;;22.73;16.52;;;10.20;77.00;;;;;;5072375;28;20036;-59
2022/02/17 11:40:04;;;;;;;28.67;19.52;;;10.10;77.00;;;;;;5074477;28;20127;-59
2022/02/17 11:42:32;;;;;;;26.13;19.02;;;10.20;77.00;;;;;;5061378;28;20423;-60
2022/02/17 11:45:13;;;;;;;24.63;18.67;;;10.20;77.20;;;;;;5076530;28;20020;-60
2022/02/17 11:48:09;;;;;;;26.83;18.52;;;10.20;77.10;;;;;;5074408;28;20032;-60
2022/02/17 11:50:47;;;;;;;23.05;16.90;;;10.10;77.00;;;;;;5073341;28;20028;-61
2022/02/17 11:53:36;;;;;;;26.40;19.67;;;10.20;77.20;;;;;;5074107;28;20028;-60
2022/02/17 11:56:19;;;;;;;24.67;16.80;;;10.20;77.20;;;;;;5075441;28;20427;-60
2022/02/17 11:58:55;;;;;;;25.15;19.63;;;10.20;77.30;;;;;;5068608;28;20515;-60
2022/02/17 12:01:27;;;;;;;23.02;17.05;;;10.20;77.30;;;;;;5070887;28;20044;-59
2022/02/17 12:04:17;;;;;;;26.45;19.13;;;10.30;77.50;;;;;;5071945;28;20115;-60
2022/02/17 12:06:51;;;;;;;22.85;16.63;;;10.30;77.40;;;;;;5077191;28;20036;-60
2022/02/17 12:09:29;;;;;;;22.90;17.67;;;10.40;77.40;;;;;;5074571;28;20019;-60
2022/02/17 12:11:55;;;;;;;25.83;17.85;;;10.50;77.60;;;;;;5075091;28;20101;-60
2022/02/17 12:14:21;;;;;;;22.05;16.23;;;10.50;77.60;;;;;;5063523;28;20388;-59
2022/02/17 12:16:51;;;;;;;24.35;17.77;;;10.60;77.70;;;;;;5071520;28;20488;-60
2022/02/17 12:19:18;;;;;;;27.80;16.30;;;10.70;77.80;;;;;;5068664;28;20241;-62
2022/02/17 12:21:47;;;;;;;21.83;16.60;;;10.80;77.80;;;;;;5071352;28;20043;-60
2022/02/17 12:24:15;;;;;;;22.38;16.48;;;10.90;77.80;;;;;;5071731;28;20056;-58
2022/02/17 12:26:48;;;;;;;23.88;17.13;;;11.00;77.70;;;;;;5073299;28;20024;-59
2022/02/17 12:29:22;;;;;;;22.45;17.10;;;11.10;77.60;;;;;;5077183;28;20035;-60
2022/02/17 12:31:49;;;;;;;26.58;19.05;;;11.10;77.50;;;;;;5068036;28;20901;-61
2022/02/17 12:34:16;;;;;;;24.65;17.70;;;11.20;77.40;;;;;;5074617;28;20056;-60
2022/02/17 12:36:42;;;;;;;24.30;18.05;;;11.20;77.30;;;;;;5075000;28;20035;-61
2022/02/17 12:39:08;;;;;;;23.88;15.98;;;11.30;77.40;;;;;;5071117;28;20161;-61
2022/02/17 12:41:38;;;;;;;25.30;18.95;;;11.30;77.40;;;;;;5072348;28;20031;-61
2022/02/17 12:44:06;;;;;;;25.20;18.50;;;11.40;77.60;;;;;;5069250;28;20057;-61
2022/02/17 12:46:31;;;;;;;23.05;16.70;;;11.40;77.70;;;;;;5071107;28;20213;-61
2022/02/17 12:49:05;;;;;;;29.10;17.33;;;11.40;77.70;;;;;;5077898;28;20385;-61
2022/02/17 12:51:34;;;;;;;25.35;17.50;;;11.50;77.80;;;;;;5075676;28;20060;-60
2022/02/17 12:54:00;;;;;;;24.98;17.25;;;11.50;77.80;;;;;;5060773;28;20381;-62
2022/02/17 12:56:33;;;;;;;24.88;16.77;;;11.60;77.70;;;;;;5072954;28;20042;-62
2022/02/17 12:59:07;;;;;;;24.20;15.25;;;11.70;77.70;;;;;;5077797;28;20085;-62
2022/02/17 13:01:33;;;;;;;25.27;16.02;;;11.80;77.70;;;;;;5064006;28;20032;-62
2022/02/17 13:03:59;;;;;;;20.13;14.25;;;11.80;77.40;;;;;;5079752;28;20131;-62
2022/02/17 13:06:27;;;;;;;18.77;14.32;;;11.90;77.30;;;;;;5076157;28;20143;-62
2022/02/17 13:08:58;;;;;;;20.25;15.00;;;11.90;77.10;;;;;;5067991;28;20136;-63
2022/02/17 13:11:29;;;;;;;19.20;14.38;;;11.90;77.00;;;;;;5069070;28;20585;-62
2022/02/17 13:14:15;;;;;;;18.98;13.45;;;12.00;77.00;;;;;;5068543;28;20028;-62
2022/02/17 13:16:52;;;;;;;22.95;14.90;;;12.00;76.70;;;;;;5064236;28;20036;-61